createdAt,value
2023-04-15T04:05:56.607Z,0.00
2023-04-15T04:12:56.515Z,0.00
2023-04-15T04:19:56.426Z,0.00
2023-04-15T04:20:56.416Z,0.00
2023-04-15T04:21:56.407Z,0.00
2023-04-15T04:24:56.384Z,0.00
2023-04-15T04:29:56.324Z,0.00
2023-04-15T04:32:56.349Z,0.00
2023-04-15T04:33:56.309Z,0.00
2023-04-15T04:34:56.276Z,0.00
2023-04-15T04:36:56.255Z,0.00
2023-04-15T04:42:56.202Z,5.62
2023-04-15T04:44:56.170Z,5.62
2023-04-15T04:48:56.143Z,11.25
2023-04-15T04:54:56.065Z,16.87
2023-04-15T04:55:56.051Z,16.87
2023-04-15T04:56:56.045Z,16.87
2023-04-15T04:58:56.020Z,22.50
2023-04-15T04:59:56.009Z,22.50
2023-04-15T05:00:56.038Z,22.50
2023-04-15T05:01:56.053Z,22.50
2023-04-15T05:03:56.111Z,28.12
2023-04-15T05:04:55.957Z,28.12
2023-04-15T05:05:55.982Z,28.12
2023-04-15T05:06:55.939Z,33.75
2023-04-15T05:07:55.931Z,33.75
2023-04-15T05:08:55.920Z,33.75
2023-04-15T05:09:55.920Z,33.75
2023-04-15T05:10:55.906Z,39.37
2023-04-15T05:12:55.876Z,39.37
2023-04-15T05:14:55.866Z,45.00
2023-04-15T05:15:55.890Z,45.00
2023-04-15T05:16:55.839Z,45.00
2023-04-15T05:17:55.870Z,45.00
2023-04-15T05:21:55.822Z,50.62
2023-04-15T05:22:55.780Z,56.25
2023-04-15T05:23:55.772Z,56.25
2023-04-15T05:24:55.763Z,56.25
2023-04-15T05:26:55.738Z,61.87
2023-04-15T05:27:55.725Z,61.87
2023-04-15T05:28:55.720Z,67.50
2023-04-15T05:29:55.712Z,67.50
2023-04-15T05:30:55.733Z,73.12
2023-04-15T05:31:55.690Z,73.12
2023-04-15T05:32:55.755Z,73.12
2023-04-15T05:33:55.675Z,78.75
2023-04-15T05:34:55.661Z,78.75
2023-04-15T05:35:55.657Z,78.75
2023-04-15T05:36:55.646Z,78.75
2023-04-15T05:37:55.654Z,84.37
2023-04-15T05:38:55.616Z,84.37
2023-04-15T05:39:55.614Z,84.37
2023-04-15T05:40:55.597Z,84.37
2023-04-15T05:41:55.591Z,84.37
2023-04-15T05:42:55.573Z,90.00
2023-04-15T05:45:55.619Z,90.00
2023-04-15T05:46:55.547Z,95.62
2023-04-15T05:47:55.569Z,95.62
2023-04-15T05:49:55.503Z,95.62
2023-04-15T05:50:55.497Z,95.62
2023-04-15T05:52:55.478Z,95.62
2023-04-15T05:54:55.459Z,101.25
2023-04-15T05:55:55.445Z,101.25
2023-04-15T05:57:55.421Z,106.87
2023-04-15T05:58:55.418Z,106.87
2023-04-15T05:59:55.404Z,112.50
2023-04-15T06:00:55.390Z,112.50
2023-04-15T06:01:55.409Z,112.50
2023-04-15T06:02:55.471Z,118.12
2023-04-15T06:03:55.565Z,118.12
2023-04-15T06:05:55.346Z,123.75
2023-04-15T06:06:55.334Z,123.75
2023-04-15T06:08:55.317Z,129.37
2023-04-15T06:09:55.352Z,135.00
2023-04-15T06:10:55.293Z,135.00
2023-04-15T06:11:55.286Z,140.62
2023-04-15T06:12:55.271Z,140.62
2023-04-15T06:13:55.264Z,140.62
2023-04-15T06:14:55.251Z,146.25
2023-04-15T06:15:55.265Z,146.25
2023-04-15T06:16:55.233Z,151.87
2023-04-15T06:17:55.276Z,151.87
2023-04-15T06:19:55.199Z,157.50
2023-04-15T06:20:55.210Z,163.12
2023-04-15T06:21:55.177Z,163.12
2023-04-15T06:22:55.169Z,168.75
2023-04-15T06:23:55.156Z,168.75
2023-04-15T06:24:55.149Z,174.37
2023-04-15T06:26:55.124Z,180.00
2023-04-15T06:27:55.117Z,180.00
2023-04-15T06:28:55.106Z,180.00
2023-04-15T06:30:55.088Z,185.62
2023-04-15T06:31:55.175Z,185.62
2023-04-15T06:32:55.104Z,191.25
2023-04-15T06:33:55.051Z,191.25
2023-04-15T06:34:55.045Z,191.25
2023-04-15T06:35:55.034Z,191.25
2023-04-15T06:36:55.024Z,191.25
2023-04-15T06:39:54.989Z,196.87
2023-04-15T06:40:54.976Z,202.50
2023-04-15T06:43:54.953Z,208.12
2023-04-15T06:44:54.941Z,208.12
2023-04-15T06:45:54.987Z,208.12
2023-04-15T06:46:54.918Z,208.12
2023-04-15T06:47:54.954Z,213.75
2023-04-15T06:49:54.890Z,230.62
2023-04-15T06:51:54.870Z,253.12
2023-04-15T06:52:54.851Z,270.00
2023-04-15T06:53:54.866Z,281.25
2023-04-15T06:54:54.835Z,303.75
2023-04-15T06:55:54.825Z,315.00
2023-04-15T06:56:54.817Z,315.00
2023-04-15T06:58:54.790Z,326.25
2023-04-15T06:59:54.808Z,309.37
2023-04-15T07:00:54.796Z,337.50
2023-04-15T07:02:54.769Z,315.00
2023-04-15T07:03:54.852Z,315.00
2023-04-15T07:04:54.731Z,315.00
2023-04-15T07:05:54.727Z,320.62
2023-04-15T07:07:54.701Z,331.87
2023-04-15T07:09:54.698Z,365.62
2023-04-15T07:10:54.675Z,354.37
2023-04-15T07:11:54.661Z,376.87
2023-04-15T07:12:54.654Z,360.00
2023-04-15T07:13:54.666Z,360.00
2023-04-15T07:14:54.631Z,360.00
2023-04-15T07:15:54.629Z,354.37
2023-04-15T07:16:54.660Z,360.00
2023-04-15T07:17:54.724Z,371.25
2023-04-15T07:19:54.601Z,371.25
2023-04-15T07:21:54.572Z,405.00
2023-04-15T07:22:54.563Z,388.12
2023-04-15T07:23:54.542Z,410.62
2023-04-15T07:25:54.560Z,388.12
2023-04-15T07:27:54.587Z,416.25
2023-04-15T07:29:54.615Z,405.00
2023-04-15T07:30:54.522Z,410.62
2023-04-15T07:31:54.482Z,393.75
2023-04-15T07:32:54.495Z,405.00
2023-04-15T07:34:54.425Z,506.25
2023-04-15T07:35:54.414Z,483.75
2023-04-15T07:37:54.396Z,376.87
2023-04-15T07:38:54.384Z,517.50
2023-04-15T07:41:54.352Z,500.62
2023-04-15T07:45:54.370Z,472.50
2023-04-15T07:46:54.305Z,472.50
2023-04-15T07:47:54.335Z,466.87
2023-04-15T07:48:54.286Z,466.87
2023-04-15T07:50:54.265Z,455.62
2023-04-15T07:51:54.251Z,450.00
2023-04-15T07:53:54.232Z,455.62
2023-04-15T07:54:54.223Z,450.00
2023-04-15T07:55:54.222Z,455.62
2023-04-15T07:56:54.207Z,444.37
2023-04-15T07:57:54.204Z,444.37
2023-04-15T07:58:54.185Z,444.37
2023-04-15T08:02:54.370Z,455.62
2023-04-15T08:03:54.218Z,466.87
2023-04-15T08:04:54.181Z,472.50
2023-04-15T08:05:54.120Z,472.50
2023-04-15T08:06:54.105Z,466.87
2023-04-15T08:07:54.100Z,461.25
2023-04-15T08:08:54.084Z,450.00
2023-04-15T08:09:54.081Z,433.12
2023-04-15T08:10:54.067Z,427.50
2023-04-15T08:12:54.042Z,455.62
2023-04-15T08:13:54.027Z,444.37
2023-04-15T08:14:54.016Z,433.12
2023-04-15T08:15:54.039Z,444.37
2023-04-15T08:16:54.008Z,461.25
2023-04-15T08:18:53.987Z,478.12
2023-04-15T08:20:53.960Z,466.87
2023-04-15T08:28:53.876Z,421.87
2023-04-15T08:29:53.878Z,421.87
2023-04-15T08:32:53.858Z,438.75
2023-04-15T08:34:53.810Z,427.50
2023-04-15T08:35:53.805Z,416.25
2023-04-15T08:36:53.793Z,410.62
2023-04-15T08:37:53.784Z,388.12
2023-04-15T08:38:53.772Z,399.37
2023-04-15T08:40:53.752Z,410.62
2023-04-15T08:41:53.744Z,399.37
2023-04-15T08:42:53.733Z,405.00
2023-04-15T08:43:53.728Z,410.62
2023-04-15T08:44:53.712Z,410.62
2023-04-15T08:45:53.697Z,410.62
